This is the latest recevied weather packets stored in our database for station/object PE1BMM-13. If no packets are shown the sender has not sent any weather packets the latest 10 day(s).
| Time | Temp. | Humidity | Pressure | Rain* | Wind** | Luminosity | Snow |
|---|---|---|---|---|---|---|---|
| 1777465845 | 16.67° C | 45% | 1028 hPa | 0 mm | - | - | - |
| 1777464647 | 16.11° C | 45% | 1028.3 hPa | 0 mm | - | - | - |
| 1777460439 | 15° C | 48% | 1028.7 hPa | 0 mm | - | - | - |
| 1777459840 | 15° C | 46% | 1028.8 hPa | 0 mm | - | - | - |
| 1777457128 | 14.44° C | 52% | 1028.8 hPa | 0 mm | - | - | - |
| 1777455637 | 13.89° C | 53% | 1028.9 hPa | 0 mm | - | - | - |
| 1777450237 | 12.78° C | 57% | 1029.1 hPa | 0 mm | - | - | - |
| 1777449637 | 12.22° C | 57% | 1029 hPa | 0 mm | - | - | - |
| 1777447236 | 11.67° C | 66% | 1028.9 hPa | 0 mm | - | - | - |
| 1777445439 | 10.56° C | 65% | 1028.6 hPa | 0 mm | - | - | - |
| 1777442437 | 9.44° C | 66% | 1028.4 hPa | 0 mm | - | - | - |
| 1777442125 | 9.44° C | 67% | 1028.4 hPa | 0 mm | - | - | - |
| 1777435230 | 6.67° C | 73% | 1027.8 hPa | 0 mm | - | - | - |
| 1777433431 | 7.22° C | 72% | 1027.9 hPa | 0 mm | - | - | - |
| 1777431025 | 7.78° C | 68% | 1027.7 hPa | 0 mm | - | - | - |
| 1777406689 | 11.67° C | 72% | 1025.6 hPa | 0 mm | - | - | - |
| 1777404609 | 11.67° C | 71% | 1025.2 hPa | 0 mm | - | - | - |
| 1777404009 | 12.22° C | 71% | 1025.1 hPa | 0 mm | - | - | - |
| 1777399808 | 13.33° C | 68% | 1024.6 hPa | 0 mm | - | - | - |
| 1777399771 | 13.33° C | 70% | 1024.5 hPa | 0 mm | - | - | - |
| 1777395002 | 15.56° C | 64% | 1024.2 hPa | 0 mm | - | - | - |
| 1777383596 | 16.67° C | 44% | 1024.7 hPa | 0 mm | - | - | - |
| 1777370990 | 14.44° C | 59% | 1025.2 hPa | 0 mm | - | - | - |
| 1777369790 | 13.33° C | 62% | 1025.2 hPa | 0 mm | - | - | - |
| 1777365584 | 12.22° C | 67% | 1025.1 hPa | 0 mm | - | - | - |
* Rain latest hour (hover to see other rain measurements)
** Current wind speed in m/s (hover to see current wind gust speed)